sensor_id;sensor_type;location;lat;lon;timestamp;P1;durP1;ratioP1;P2;durP2;ratioP2
35990;SDS011;22064;42.672;23.282;2023-01-31T00:01:25;41.42;;;15.88;;
35990;SDS011;22064;42.672;23.282;2023-01-31T00:04:11;41.35;;;17.08;;
35990;SDS011;22064;42.672;23.282;2023-01-31T00:06:55;48.00;;;17.45;;
35990;SDS011;22064;42.672;23.282;2023-01-31T00:09:39;43.53;;;16.45;;
35990;SDS011;22064;42.672;23.282;2023-01-31T00:12:23;48.22;;;17.42;;
35990;SDS011;22064;42.672;23.282;2023-01-31T00:15:07;46.42;;;16.27;;
35990;SDS011;22064;42.672;23.282;2023-01-31T00:17:51;46.03;;;15.52;;
35990;SDS011;22064;42.672;23.282;2023-01-31T00:20:38;44.30;;;16.13;;
35990;SDS011;22064;42.672;23.282;2023-01-31T00:23:22;44.30;;;13.85;;
35990;SDS011;22064;42.672;23.282;2023-01-31T00:26:13;37.45;;;13.15;;
35990;SDS011;22064;42.672;23.282;2023-01-31T00:29:00;37.50;;;14.25;;
35990;SDS011;22064;42.672;23.282;2023-01-31T00:31:46;39.13;;;15.23;;
35990;SDS011;22064;42.672;23.282;2023-01-31T00:34:30;38.85;;;14.38;;
35990;SDS011;22064;42.672;23.282;2023-01-31T00:37:14;39.53;;;14.60;;
35990;SDS011;22064;42.672;23.282;2023-01-31T00:39:59;39.67;;;13.95;;
35990;SDS011;22064;42.672;23.282;2023-01-31T00:42:43;34.00;;;13.88;;
35990;SDS011;22064;42.672;23.282;2023-01-31T00:45:28;38.45;;;14.10;;
35990;SDS011;22064;42.672;23.282;2023-01-31T00:48:12;39.35;;;13.57;;
35990;SDS011;22064;42.672;23.282;2023-01-31T00:50:56;36.65;;;13.05;;
35990;SDS011;22064;42.672;23.282;2023-01-31T00:53:41;41.30;;;15.45;;
35990;SDS011;22064;42.672;23.282;2023-01-31T00:56:25;35.58;;;12.85;;
35990;SDS011;22064;42.672;23.282;2023-01-31T00:59:10;43.13;;;14.55;;
35990;SDS011;22064;42.672;23.282;2023-01-31T01:01:54;37.45;;;13.40;;
35990;SDS011;22064;42.672;23.282;2023-01-31T01:04:38;35.50;;;13.00;;
35990;SDS011;22064;42.672;23.282;2023-01-31T01:07:24;39.20;;;13.65;;
35990;SDS011;22064;42.672;23.282;2023-01-31T01:10:08;38.35;;;13.23;;
35990;SDS011;22064;42.672;23.282;2023-01-31T01:12:53;28.08;;;10.60;;
35990;SDS011;22064;42.672;23.282;2023-01-31T01:15:37;29.85;;;12.00;;
35990;SDS011;22064;42.672;23.282;2023-01-31T01:18:22;29.48;;;10.00;;
35990;SDS011;22064;42.672;23.282;2023-01-31T01:21:14;28.70;;;10.30;;
35990;SDS011;22064;42.672;23.282;2023-01-31T01:24:03;24.38;;;7.60;;
35990;SDS011;22064;42.672;23.282;2023-01-31T01:26:49;26.00;;;8.82;;
35990;SDS011;22064;42.672;23.282;2023-01-31T01:29:33;25.38;;;9.32;;
35990;SDS011;22064;42.672;23.282;2023-01-31T01:32:18;19.25;;;6.15;;
35990;SDS011;22064;42.672;23.282;2023-01-31T01:35:03;18.42;;;6.20;;
35990;SDS011;22064;42.672;23.282;2023-01-31T01:37:48;15.02;;;4.53;;
35990;SDS011;22064;42.672;23.282;2023-01-31T01:40:35;10.52;;;4.40;;
35990;SDS011;22064;42.672;23.282;2023-01-31T01:43:20;10.80;;;4.47;;
35990;SDS011;22064;42.672;23.282;2023-01-31T01:46:04;9.90;;;3.90;;
35990;SDS011;22064;42.672;23.282;2023-01-31T01:48:50;11.05;;;4.10;;
35990;SDS011;22064;42.672;23.282;2023-01-31T01:51:38;10.02;;;3.75;;
35990;SDS011;22064;42.672;23.282;2023-01-31T01:54:30;13.88;;;4.75;;
35990;SDS011;22064;42.672;23.282;2023-01-31T01:57:20;13.77;;;4.53;;
35990;SDS011;22064;42.672;23.282;2023-01-31T02:00:12;13.48;;;5.07;;
35990;SDS011;22064;42.672;23.282;2023-01-31T02:03:00;10.98;;;4.63;;
35990;SDS011;22064;42.672;23.282;2023-01-31T02:05:49;12.75;;;4.93;;
35990;SDS011;22064;42.672;23.282;2023-01-31T02:08:37;13.05;;;4.70;;
35990;SDS011;22064;42.672;23.282;2023-01-31T02:11:24;14.70;;;4.93;;
35990;SDS011;22064;42.672;23.282;2023-01-31T02:14:10;10.05;;;3.65;;
35990;SDS011;22064;42.672;23.282;2023-01-31T02:16:55;11.02;;;4.75;;
35990;SDS011;22064;42.672;23.282;2023-01-31T02:22:58;13.10;;;4.93;;
35990;SDS011;22064;42.672;23.282;2023-01-31T02:35:18;17.55;;;4.70;;
35990;SDS011;22064;42.672;23.282;2023-01-31T02:44:48;15.02;;;5.68;;
35990;SDS011;22064;42.672;23.282;2023-01-31T02:51:19;15.77;;;6.15;;
35990;SDS011;22064;42.672;23.282;2023-01-31T02:54:11;13.43;;;5.85;;
35990;SDS011;22064;42.672;23.282;2023-01-31T02:57:00;18.55;;;5.35;;
35990;SDS011;22064;42.672;23.282;2023-01-31T02:59:45;17.88;;;6.72;;
35990;SDS011;22064;42.672;23.282;2023-01-31T03:02:29;15.20;;;5.22;;
35990;SDS011;22064;42.672;23.282;2023-01-31T03:05:14;19.05;;;6.40;;
35990;SDS011;22064;42.672;23.282;2023-01-31T03:07:59;15.25;;;5.45;;
35990;SDS011;22064;42.672;23.282;2023-01-31T03:11:01;17.48;;;6.10;;
35990;SDS011;22064;42.672;23.282;2023-01-31T03:16:50;17.27;;;6.30;;
35990;SDS011;22064;42.672;23.282;2023-01-31T03:22:49;16.20;;;6.13;;
35990;SDS011;22064;42.672;23.282;2023-01-31T03:25:37;15.38;;;5.70;;
35990;SDS011;22064;42.672;23.282;2023-01-31T03:28:26;15.82;;;5.22;;
35990;SDS011;22064;42.672;23.282;2023-01-31T03:31:17;15.73;;;5.80;;
35990;SDS011;22064;42.672;23.282;2023-01-31T03:34:08;16.65;;;5.78;;
35990;SDS011;22064;42.672;23.282;2023-01-31T03:36:57;14.13;;;4.93;;
35990;SDS011;22064;42.672;23.282;2023-01-31T03:46:02;20.23;;;6.45;;
35990;SDS011;22064;42.672;23.282;2023-01-31T03:48:53;20.50;;;7.60;;
35990;SDS011;22064;42.672;23.282;2023-01-31T03:51:40;19.15;;;6.57;;
35990;SDS011;22064;42.672;23.282;2023-01-31T03:54:32;20.63;;;7.15;;
35990;SDS011;22064;42.672;23.282;2023-01-31T03:57:22;18.73;;;6.78;;
35990;SDS011;22064;42.672;23.282;2023-01-31T04:00:10;23.05;;;7.95;;
35990;SDS011;22064;42.672;23.282;2023-01-31T04:03:41;18.10;;;7.30;;
35990;SDS011;22064;42.672;23.282;2023-01-31T04:06:26;20.63;;;7.57;;
35990;SDS011;22064;42.672;23.282;2023-01-31T04:09:12;20.58;;;8.02;;
35990;SDS011;22064;42.672;23.282;2023-01-31T04:11:58;21.63;;;8.00;;
35990;SDS011;22064;42.672;23.282;2023-01-31T04:14:44;23.30;;;7.78;;
35990;SDS011;22064;42.672;23.282;2023-01-31T04:17:28;22.92;;;7.43;;
35990;SDS011;22064;42.672;23.282;2023-01-31T04:20:13;19.58;;;7.65;;
35990;SDS011;22064;42.672;23.282;2023-01-31T04:22:57;23.75;;;8.30;;
35990;SDS011;22064;42.672;23.282;2023-01-31T04:25:43;20.13;;;7.80;;
35990;SDS011;22064;42.672;23.282;2023-01-31T04:28:27;21.75;;;7.05;;
35990;SDS011;22064;42.672;23.282;2023-01-31T04:31:12;23.00;;;9.52;;
35990;SDS011;22064;42.672;23.282;2023-01-31T04:33:57;20.65;;;8.27;;
35990;SDS011;22064;42.672;23.282;2023-01-31T04:36:42;24.30;;;8.35;;
35990;SDS011;22064;42.672;23.282;2023-01-31T04:39:26;21.85;;;8.60;;
35990;SDS011;22064;42.672;23.282;2023-01-31T04:42:10;23.10;;;9.45;;
35990;SDS011;22064;42.672;23.282;2023-01-31T04:44:55;20.65;;;8.27;;
35990;SDS011;22064;42.672;23.282;2023-01-31T04:47:39;22.80;;;8.48;;
35990;SDS011;22064;42.672;23.282;2023-01-31T04:50:23;23.05;;;8.68;;
35990;SDS011;22064;42.672;23.282;2023-01-31T04:53:07;25.52;;;9.45;;
35990;SDS011;22064;42.672;23.282;2023-01-31T04:55:54;21.42;;;9.35;;
35990;SDS011;22064;42.672;23.282;2023-01-31T04:58:39;24.17;;;9.18;;
35990;SDS011;22064;42.672;23.282;2023-01-31T05:01:24;25.33;;;8.98;;
35990;SDS011;22064;42.672;23.282;2023-01-31T05:04:09;24.70;;;8.93;;
35990;SDS011;22064;42.672;23.282;2023-01-31T05:06:53;23.65;;;9.35;;
35990;SDS011;22064;42.672;23.282;2023-01-31T05:09:38;21.90;;;8.48;;
35990;SDS011;22064;42.672;23.282;2023-01-31T05:12:23;25.70;;;9.88;;
35990;SDS011;22064;42.672;23.282;2023-01-31T05:15:08;22.70;;;8.73;;
35990;SDS011;22064;42.672;23.282;2023-01-31T05:17:54;24.33;;;9.27;;
35990;SDS011;22064;42.672;23.282;2023-01-31T05:20:46;26.83;;;9.90;;
35990;SDS011;22064;42.672;23.282;2023-01-31T05:23:32;21.13;;;8.52;;
35990;SDS011;22064;42.672;23.282;2023-01-31T05:26:17;24.15;;;8.95;;
35990;SDS011;22064;42.672;23.282;2023-01-31T05:29:01;21.13;;;7.90;;
35990;SDS011;22064;42.672;23.282;2023-01-31T05:31:51;23.33;;;7.95;;
35990;SDS011;22064;42.672;23.282;2023-01-31T05:34:39;21.85;;;7.50;;
35990;SDS011;22064;42.672;23.282;2023-01-31T05:37:23;20.02;;;7.00;;
35990;SDS011;22064;42.672;23.282;2023-01-31T05:40:09;22.02;;;8.30;;
35990;SDS011;22064;42.672;23.282;2023-01-31T05:42:54;22.60;;;8.02;;
35990;SDS011;22064;42.672;23.282;2023-01-31T05:45:40;21.27;;;8.18;;
35990;SDS011;22064;42.672;23.282;2023-01-31T05:48:24;21.92;;;8.20;;
35990;SDS011;22064;42.672;23.282;2023-01-31T05:51:08;20.05;;;8.07;;
35990;SDS011;22064;42.672;23.282;2023-01-31T05:53:53;23.30;;;9.00;;
35990;SDS011;22064;42.672;23.282;2023-01-31T05:56:37;22.52;;;8.82;;
35990;SDS011;22064;42.672;23.282;2023-01-31T05:59:22;20.30;;;7.78;;
35990;SDS011;22064;42.672;23.282;2023-01-31T06:02:06;21.20;;;8.63;;
35990;SDS011;22064;42.672;23.282;2023-01-31T06:04:51;21.55;;;8.77;;
35990;SDS011;22064;42.672;23.282;2023-01-31T06:07:36;19.95;;;8.10;;
35990;SDS011;22064;42.672;23.282;2023-01-31T06:10:21;19.27;;;7.43;;
35990;SDS011;22064;42.672;23.282;2023-01-31T06:13:05;23.08;;;9.02;;
35990;SDS011;22064;42.672;23.282;2023-01-31T06:15:50;22.75;;;8.20;;
35990;SDS011;22064;42.672;23.282;2023-01-31T06:18:34;22.60;;;8.38;;
35990;SDS011;22064;42.672;23.282;2023-01-31T06:21:18;24.42;;;8.75;;
35990;SDS011;22064;42.672;23.282;2023-01-31T06:24:03;20.95;;;8.85;;
35990;SDS011;22064;42.672;23.282;2023-01-31T06:26:47;22.63;;;9.27;;
35990;SDS011;22064;42.672;23.282;2023-01-31T06:29:31;21.75;;;8.40;;
35990;SDS011;22064;42.672;23.282;2023-01-31T06:32:16;24.85;;;8.98;;
35990;SDS011;22064;42.672;23.282;2023-01-31T06:34:59;21.35;;;8.73;;
35990;SDS011;22064;42.672;23.282;2023-01-31T06:37:44;19.02;;;7.90;;
35990;SDS011;22064;42.672;23.282;2023-01-31T06:40:28;21.42;;;8.45;;
35990;SDS011;22064;42.672;23.282;2023-01-31T06:43:13;25.65;;;9.75;;
35990;SDS011;22064;42.672;23.282;2023-01-31T06:45:57;23.80;;;8.45;;
35990;SDS011;22064;42.672;23.282;2023-01-31T06:48:41;19.45;;;8.50;;
35990;SDS011;22064;42.672;23.282;2023-01-31T06:51:27;20.75;;;8.23;;
35990;SDS011;22064;42.672;23.282;2023-01-31T06:54:11;21.38;;;9.15;;
35990;SDS011;22064;42.672;23.282;2023-01-31T06:56:55;20.55;;;8.20;;
35990;SDS011;22064;42.672;23.282;2023-01-31T06:59:39;23.20;;;9.85;;
35990;SDS011;22064;42.672;23.282;2023-01-31T07:02:23;20.40;;;8.48;;
35990;SDS011;22064;42.672;23.282;2023-01-31T07:05:07;19.73;;;7.72;;
35990;SDS011;22064;42.672;23.282;2023-01-31T07:07:52;23.52;;;9.32;;
35990;SDS011;22064;42.672;23.282;2023-01-31T07:10:36;22.75;;;8.77;;
35990;SDS011;22064;42.672;23.282;2023-01-31T07:13:20;20.55;;;8.70;;
35990;SDS011;22064;42.672;23.282;2023-01-31T07:16:04;19.50;;;7.65;;
35990;SDS011;22064;42.672;23.282;2023-01-31T07:18:50;18.98;;;6.75;;
35990;SDS011;22064;42.672;23.282;2023-01-31T07:21:36;19.60;;;7.38;;
35990;SDS011;22064;42.672;23.282;2023-01-31T07:24:20;14.15;;;6.43;;
35990;SDS011;22064;42.672;23.282;2023-01-31T07:27:05;22.23;;;8.95;;
35990;SDS011;22064;42.672;23.282;2023-01-31T07:29:49;20.20;;;8.25;;
35990;SDS011;22064;42.672;23.282;2023-01-31T07:32:33;21.80;;;8.60;;
35990;SDS011;22064;42.672;23.282;2023-01-31T07:35:17;20.00;;;7.97;;
35990;SDS011;22064;42.672;23.282;2023-01-31T07:38:02;19.20;;;7.57;;
35990;SDS011;22064;42.672;23.282;2023-01-31T07:40:45;20.45;;;9.23;;
35990;SDS011;22064;42.672;23.282;2023-01-31T07:43:30;23.50;;;7.82;;
35990;SDS011;22064;42.672;23.282;2023-01-31T07:46:15;22.23;;;8.38;;
35990;SDS011;22064;42.672;23.282;2023-01-31T07:48:59;21.70;;;9.15;;
35990;SDS011;22064;42.672;23.282;2023-01-31T07:51:44;25.52;;;9.45;;
35990;SDS011;22064;42.672;23.282;2023-01-31T07:54:28;21.52;;;9.50;;
35990;SDS011;22064;42.672;23.282;2023-01-31T07:57:12;22.13;;;7.70;;
35990;SDS011;22064;42.672;23.282;2023-01-31T07:59:56;19.20;;;8.50;;
35990;SDS011;22064;42.672;23.282;2023-01-31T08:02:40;21.58;;;8.50;;
35990;SDS011;22064;42.672;23.282;2023-01-31T08:05:46;21.27;;;9.25;;
35990;SDS011;22064;42.672;23.282;2023-01-31T08:08:30;18.83;;;8.00;;
35990;SDS011;22064;42.672;23.282;2023-01-31T08:11:15;23.42;;;8.20;;
35990;SDS011;22064;42.672;23.282;2023-01-31T08:13:59;23.58;;;9.15;;
35990;SDS011;22064;42.672;23.282;2023-01-31T08:16:43;18.30;;;8.10;;
35990;SDS011;22064;42.672;23.282;2023-01-31T08:19:27;20.55;;;7.72;;
35990;SDS011;22064;42.672;23.282;2023-01-31T08:22:11;21.83;;;8.68;;
35990;SDS011;22064;42.672;23.282;2023-01-31T08:24:55;18.27;;;7.97;;
35990;SDS011;22064;42.672;23.282;2023-01-31T08:27:39;17.50;;;7.97;;
35990;SDS011;22064;42.672;23.282;2023-01-31T08:30:24;15.82;;;6.85;;
35990;SDS011;22064;42.672;23.282;2023-01-31T08:33:08;19.48;;;7.68;;
35990;SDS011;22064;42.672;23.282;2023-01-31T08:35:53;15.70;;;7.00;;
35990;SDS011;22064;42.672;23.282;2023-01-31T08:38:37;16.25;;;7.20;;
35990;SDS011;22064;42.672;23.282;2023-01-31T08:41:23;16.98;;;7.25;;
35990;SDS011;22064;42.672;23.282;2023-01-31T08:44:10;20.25;;;7.45;;
35990;SDS011;22064;42.672;23.282;2023-01-31T08:46:55;17.77;;;7.68;;
35990;SDS011;22064;42.672;23.282;2023-01-31T08:49:39;18.88;;;7.43;;
35990;SDS011;22064;42.672;23.282;2023-01-31T08:52:23;19.65;;;7.28;;
35990;SDS011;22064;42.672;23.282;2023-01-31T08:55:08;17.63;;;7.55;;
35990;SDS011;22064;42.672;23.282;2023-01-31T08:57:56;17.53;;;7.07;;
35990;SDS011;22064;42.672;23.282;2023-01-31T09:00:41;16.88;;;6.65;;
35990;SDS011;22064;42.672;23.282;2023-01-31T09:03:25;17.05;;;6.65;;
35990;SDS011;22064;42.672;23.282;2023-01-31T09:06:10;18.65;;;7.57;;
35990;SDS011;22064;42.672;23.282;2023-01-31T09:08:57;16.75;;;6.80;;
35990;SDS011;22064;42.672;23.282;2023-01-31T09:11:42;15.23;;;6.07;;
35990;SDS011;22064;42.672;23.282;2023-01-31T09:14:26;12.43;;;5.38;;
35990;SDS011;22064;42.672;23.282;2023-01-31T09:17:10;14.18;;;5.70;;
35990;SDS011;22064;42.672;23.282;2023-01-31T09:19:55;13.60;;;5.78;;
35990;SDS011;22064;42.672;23.282;2023-01-31T09:22:40;14.52;;;5.75;;
35990;SDS011;22064;42.672;23.282;2023-01-31T09:25:24;17.25;;;7.10;;
35990;SDS011;22064;42.672;23.282;2023-01-31T09:28:08;14.98;;;6.60;;
35990;SDS011;22064;42.672;23.282;2023-01-31T09:30:53;14.75;;;5.28;;
35990;SDS011;22064;42.672;23.282;2023-01-31T09:33:38;13.32;;;5.65;;
35990;SDS011;22064;42.672;23.282;2023-01-31T09:36:22;12.55;;;5.88;;
35990;SDS011;22064;42.672;23.282;2023-01-31T09:39:08;11.93;;;5.38;;
35990;SDS011;22064;42.672;23.282;2023-01-31T09:41:55;10.77;;;5.80;;
35990;SDS011;22064;42.672;23.282;2023-01-31T09:45:01;11.10;;;5.40;;
35990;SDS011;22064;42.672;23.282;2023-01-31T09:47:54;14.63;;;5.35;;
35990;SDS011;22064;42.672;23.282;2023-01-31T09:50:48;10.75;;;4.80;;
35990;SDS011;22064;42.672;23.282;2023-01-31T09:53:37;9.27;;;4.50;;
35990;SDS011;22064;42.672;23.282;2023-01-31T09:56:31;11.57;;;4.53;;
35990;SDS011;22064;42.672;23.282;2023-01-31T10:11:10;11.85;;;4.72;;
35990;SDS011;22064;42.672;23.282;2023-01-31T10:17:22;9.52;;;3.90;;
35990;SDS011;22064;42.672;23.282;2023-01-31T10:26:11;9.20;;;4.50;;
35990;SDS011;22064;42.672;23.282;2023-01-31T10:35:27;8.52;;;3.92;;
35990;SDS011;22064;42.672;23.282;2023-01-31T10:41:05;8.52;;;4.30;;
35990;SDS011;22064;42.672;23.282;2023-01-31T10:43:59;10.93;;;4.30;;
35990;SDS011;22064;42.672;23.282;2023-01-31T10:50:17;7.25;;;4.18;;
35990;SDS011;22064;42.672;23.282;2023-01-31T11:00:43;9.48;;;4.40;;
35990;SDS011;22064;42.672;23.282;2023-01-31T11:03:30;9.43;;;4.78;;
35990;SDS011;22064;42.672;23.282;2023-01-31T11:06:14;10.00;;;4.40;;
35990;SDS011;22064;42.672;23.282;2023-01-31T11:08:59;8.73;;;4.22;;
35990;SDS011;22064;42.672;23.282;2023-01-31T11:11:54;6.00;;;3.63;;
35990;SDS011;22064;42.672;23.282;2023-01-31T11:14:39;8.68;;;4.28;;
35990;SDS011;22064;42.672;23.282;2023-01-31T11:17:23;7.32;;;4.22;;
35990;SDS011;22064;42.672;23.282;2023-01-31T11:20:14;13.05;;;4.85;;
35990;SDS011;22064;42.672;23.282;2023-01-31T11:23:09;10.60;;;5.00;;
35990;SDS011;22064;42.672;23.282;2023-01-31T11:25:59;9.60;;;5.00;;
35990;SDS011;22064;42.672;23.282;2023-01-31T11:28:45;8.82;;;4.78;;
35990;SDS011;22064;42.672;23.282;2023-01-31T11:31:37;10.10;;;4.93;;
35990;SDS011;22064;42.672;23.282;2023-01-31T11:34:25;8.73;;;4.78;;
35990;SDS011;22064;42.672;23.282;2023-01-31T11:37:15;7.82;;;3.83;;
35990;SDS011;22064;42.672;23.282;2023-01-31T11:40:03;9.38;;;4.72;;
35990;SDS011;22064;42.672;23.282;2023-01-31T11:46:00;12.75;;;6.05;;
35990;SDS011;22064;42.672;23.282;2023-01-31T11:48:46;9.63;;;5.30;;
35990;SDS011;22064;42.672;23.282;2023-01-31T11:51:30;8.40;;;4.65;;
35990;SDS011;22064;42.672;23.282;2023-01-31T11:54:17;9.10;;;4.43;;
35990;SDS011;22064;42.672;23.282;2023-01-31T11:57:14;9.98;;;4.50;;
35990;SDS011;22064;42.672;23.282;2023-01-31T12:00:19;10.43;;;5.72;;
35990;SDS011;22064;42.672;23.282;2023-01-31T12:03:05;10.52;;;5.40;;
35990;SDS011;22064;42.672;23.282;2023-01-31T12:05:59;13.00;;;6.43;;
35990;SDS011;22064;42.672;23.282;2023-01-31T12:08:45;12.63;;;6.22;;
35990;SDS011;22064;42.672;23.282;2023-01-31T12:11:39;12.05;;;5.38;;
35990;SDS011;22064;42.672;23.282;2023-01-31T12:14:38;10.68;;;5.45;;
35990;SDS011;22064;42.672;23.282;2023-01-31T12:17:23;13.25;;;5.88;;
35990;SDS011;22064;42.672;23.282;2023-01-31T12:20:17;9.00;;;5.03;;
35990;SDS011;22064;42.672;23.282;2023-01-31T12:23:29;13.65;;;6.47;;
35990;SDS011;22064;42.672;23.282;2023-01-31T12:26:29;13.50;;;5.75;;
35990;SDS011;22064;42.672;23.282;2023-01-31T12:42:03;12.00;;;5.68;;
35990;SDS011;22064;42.672;23.282;2023-01-31T12:45:11;11.37;;;5.37;;
35990;SDS011;22064;42.672;23.282;2023-01-31T12:51:12;9.93;;;4.45;;
35990;SDS011;22064;42.672;23.282;2023-01-31T12:57:27;10.23;;;5.00;;
35990;SDS011;22064;42.672;23.282;2023-01-31T13:00:26;10.35;;;5.28;;
35990;SDS011;22064;42.672;23.282;2023-01-31T13:06:49;11.38;;;4.97;;
35990;SDS011;22064;42.672;23.282;2023-01-31T13:09:38;11.77;;;5.05;;
35990;SDS011;22064;42.672;23.282;2023-01-31T13:12:24;7.65;;;4.25;;
35990;SDS011;22064;42.672;23.282;2023-01-31T13:15:15;8.50;;;4.80;;
35990;SDS011;22064;42.672;23.282;2023-01-31T13:18:06;13.57;;;5.03;;
35990;SDS011;22064;42.672;23.282;2023-01-31T13:20:55;9.43;;;4.70;;
35990;SDS011;22064;42.672;23.282;2023-01-31T13:23:47;13.43;;;4.60;;
35990;SDS011;22064;42.672;23.282;2023-01-31T13:26:48;7.47;;;4.00;;
35990;SDS011;22064;42.672;23.282;2023-01-31T13:29:37;8.30;;;4.32;;
35990;SDS011;22064;42.672;23.282;2023-01-31T13:32:33;9.05;;;4.75;;
35990;SDS011;22064;42.672;23.282;2023-01-31T13:35:26;8.48;;;4.70;;
35990;SDS011;22064;42.672;23.282;2023-01-31T13:38:16;10.20;;;4.63;;
35990;SDS011;22064;42.672;23.282;2023-01-31T13:41:03;7.15;;;3.50;;
35990;SDS011;22064;42.672;23.282;2023-01-31T13:43:51;8.35;;;4.45;;
35990;SDS011;22064;42.672;23.282;2023-01-31T13:46:37;8.25;;;4.68;;
35990;SDS011;22064;42.672;23.282;2023-01-31T13:49:36;7.22;;;3.97;;
35990;SDS011;22064;42.672;23.282;2023-01-31T13:52:35;8.63;;;4.30;;
35990;SDS011;22064;42.672;23.282;2023-01-31T13:55:36;8.73;;;4.57;;
35990;SDS011;22064;42.672;23.282;2023-01-31T13:58:23;8.43;;;4.00;;
35990;SDS011;22064;42.672;23.282;2023-01-31T14:01:16;9.13;;;4.25;;
35990;SDS011;22064;42.672;23.282;2023-01-31T14:12:35;8.18;;;3.97;;
35990;SDS011;22064;42.672;23.282;2023-01-31T14:15:44;10.10;;;4.47;;
35990;SDS011;22064;42.672;23.282;2023-01-31T14:18:49;9.02;;;4.47;;
35990;SDS011;22064;42.672;23.282;2023-01-31T14:24:18;8.38;;;4.53;;
35990;SDS011;22064;42.672;23.282;2023-01-31T14:30:34;8.30;;;4.65;;
35990;SDS011;22064;42.672;23.282;2023-01-31T14:33:22;11.52;;;4.10;;
35990;SDS011;22064;42.672;23.282;2023-01-31T14:42:26;8.10;;;4.22;;
35990;SDS011;22064;42.672;23.282;2023-01-31T14:58:17;6.90;;;3.90;;
35990;SDS011;22064;42.672;23.282;2023-01-31T15:01:06;12.32;;;4.57;;
35990;SDS011;22064;42.672;23.282;2023-01-31T15:03:54;16.80;;;4.85;;
35990;SDS011;22064;42.672;23.282;2023-01-31T15:06:41;10.88;;;4.78;;
35990;SDS011;22064;42.672;23.282;2023-01-31T15:09:34;8.95;;;4.90;;
35990;SDS011;22064;42.672;23.282;2023-01-31T15:15:37;10.40;;;5.22;;
35990;SDS011;22064;42.672;23.282;2023-01-31T15:18:23;10.90;;;5.50;;
35990;SDS011;22064;42.672;23.282;2023-01-31T15:21:09;14.15;;;5.60;;
35990;SDS011;22064;42.672;23.282;2023-01-31T15:23:54;13.50;;;5.97;;
35990;SDS011;22064;42.672;23.282;2023-01-31T15:26:39;11.73;;;5.68;;
35990;SDS011;22064;42.672;23.282;2023-01-31T15:29:24;12.32;;;5.07;;
35990;SDS011;22064;42.672;23.282;2023-01-31T15:32:35;10.38;;;5.22;;
35990;SDS011;22064;42.672;23.282;2023-01-31T15:35:30;12.05;;;5.47;;
35990;SDS011;22064;42.672;23.282;2023-01-31T15:44:30;11.00;;;4.85;;
35990;SDS011;22064;42.672;23.282;2023-01-31T15:47:21;13.40;;;5.75;;
35990;SDS011;22064;42.672;23.282;2023-01-31T15:50:13;12.43;;;6.30;;
35990;SDS011;22064;42.672;23.282;2023-01-31T15:53:02;13.25;;;6.00;;
35990;SDS011;22064;42.672;23.282;2023-01-31T15:55:49;11.82;;;5.82;;
35990;SDS011;22064;42.672;23.282;2023-01-31T15:58:35;16.65;;;6.10;;
35990;SDS011;22064;42.672;23.282;2023-01-31T16:01:21;12.55;;;5.22;;
35990;SDS011;22064;42.672;23.282;2023-01-31T16:04:05;15.48;;;4.95;;
35990;SDS011;22064;42.672;23.282;2023-01-31T16:06:50;12.85;;;5.90;;
35990;SDS011;22064;42.672;23.282;2023-01-31T16:09:35;11.65;;;5.35;;
35990;SDS011;22064;42.672;23.282;2023-01-31T16:12:21;11.23;;;5.78;;
35990;SDS011;22064;42.672;23.282;2023-01-31T16:15:06;8.75;;;4.72;;
35990;SDS011;22064;42.672;23.282;2023-01-31T16:17:59;12.50;;;5.53;;
35990;SDS011;22064;42.672;23.282;2023-01-31T16:20:48;10.90;;;5.85;;
35990;SDS011;22064;42.672;23.282;2023-01-31T16:23:35;9.30;;;5.03;;
35990;SDS011;22064;42.672;23.282;2023-01-31T16:26:21;11.95;;;5.47;;
35990;SDS011;22064;42.672;23.282;2023-01-31T16:29:13;11.50;;;5.47;;
35990;SDS011;22064;42.672;23.282;2023-01-31T16:32:00;13.60;;;6.05;;
35990;SDS011;22064;42.672;23.282;2023-01-31T16:34:49;11.43;;;5.90;;
35990;SDS011;22064;42.672;23.282;2023-01-31T16:37:42;11.50;;;5.25;;
35990;SDS011;22064;42.672;23.282;2023-01-31T16:40:28;14.50;;;6.20;;
35990;SDS011;22064;42.672;23.282;2023-01-31T16:43:23;12.98;;;6.63;;
35990;SDS011;22064;42.672;23.282;2023-01-31T16:46:53;15.95;;;6.38;;
35990;SDS011;22064;42.672;23.282;2023-01-31T16:49:25;15.43;;;6.22;;
35990;SDS011;22064;42.672;23.282;2023-01-31T16:52:28;20.00;;;7.43;;
35990;SDS011;22064;42.672;23.282;2023-01-31T16:55:14;20.00;;;7.95;;
35990;SDS011;22064;42.672;23.282;2023-01-31T16:57:59;17.63;;;7.13;;
35990;SDS011;22064;42.672;23.282;2023-01-31T17:00:43;15.63;;;7.03;;
35990;SDS011;22064;42.672;23.282;2023-01-31T17:03:27;13.90;;;5.22;;
35990;SDS011;22064;42.672;23.282;2023-01-31T17:06:19;12.43;;;5.63;;
35990;SDS011;22064;42.672;23.282;2023-01-31T17:09:06;12.23;;;5.50;;
35990;SDS011;22064;42.672;23.282;2023-01-31T17:11:52;14.02;;;5.57;;
35990;SDS011;22064;42.672;23.282;2023-01-31T17:14:37;11.75;;;5.72;;
35990;SDS011;22064;42.672;23.282;2023-01-31T17:17:31;10.07;;;5.20;;
35990;SDS011;22064;42.672;23.282;2023-01-31T17:20:18;14.38;;;6.20;;
35990;SDS011;22064;42.672;23.282;2023-01-31T17:23:04;9.88;;;5.18;;
35990;SDS011;22064;42.672;23.282;2023-01-31T17:25:49;14.10;;;5.40;;
35990;SDS011;22064;42.672;23.282;2023-01-31T17:28:33;10.75;;;4.40;;
35990;SDS011;22064;42.672;23.282;2023-01-31T17:31:18;11.52;;;5.18;;
35990;SDS011;22064;42.672;23.282;2023-01-31T17:34:04;9.57;;;4.50;;
35990;SDS011;22064;42.672;23.282;2023-01-31T17:36:53;11.93;;;4.95;;
35990;SDS011;22064;42.672;23.282;2023-01-31T17:39:38;9.52;;;3.90;;
35990;SDS011;22064;42.672;23.282;2023-01-31T17:42:23;11.07;;;4.65;;
35990;SDS011;22064;42.672;23.282;2023-01-31T17:45:14;11.70;;;4.68;;
35990;SDS011;22064;42.672;23.282;2023-01-31T17:48:00;11.63;;;4.43;;
35990;SDS011;22064;42.672;23.282;2023-01-31T17:50:44;11.13;;;4.22;;
35990;SDS011;22064;42.672;23.282;2023-01-31T17:53:29;9.50;;;4.53;;
35990;SDS011;22064;42.672;23.282;2023-01-31T17:56:14;13.07;;;5.35;;
35990;SDS011;22064;42.672;23.282;2023-01-31T17:58:59;10.60;;;4.93;;
35990;SDS011;22064;42.672;23.282;2023-01-31T18:01:43;9.07;;;4.65;;
35990;SDS011;22064;42.672;23.282;2023-01-31T18:04:27;11.25;;;4.78;;
35990;SDS011;22064;42.672;23.282;2023-01-31T18:07:15;9.95;;;4.10;;
35990;SDS011;22064;42.672;23.282;2023-01-31T18:10:00;12.38;;;4.80;;
35990;SDS011;22064;42.672;23.282;2023-01-31T18:12:44;10.25;;;4.72;;
35990;SDS011;22064;42.672;23.282;2023-01-31T18:15:28;11.23;;;4.72;;
35990;SDS011;22064;42.672;23.282;2023-01-31T18:18:12;11.73;;;5.05;;
35990;SDS011;22064;42.672;23.282;2023-01-31T18:20:57;12.70;;;5.15;;
35990;SDS011;22064;42.672;23.282;2023-01-31T18:23:42;14.75;;;5.15;;
35990;SDS011;22064;42.672;23.282;2023-01-31T18:26:26;11.73;;;4.78;;
35990;SDS011;22064;42.672;23.282;2023-01-31T18:29:11;12.27;;;4.88;;
35990;SDS011;22064;42.672;23.282;2023-01-31T18:32:01;15.73;;;5.53;;
35990;SDS011;22064;42.672;23.282;2023-01-31T18:34:49;13.07;;;5.28;;
35990;SDS011;22064;42.672;23.282;2023-01-31T18:37:33;13.93;;;5.38;;
35990;SDS011;22064;42.672;23.282;2023-01-31T18:40:17;37.17;;;13.65;;
35990;SDS011;22064;42.672;23.282;2023-01-31T18:43:02;11.20;;;5.18;;
35990;SDS011;22064;42.672;23.282;2023-01-31T18:45:46;10.70;;;4.82;;
35990;SDS011;22064;42.672;23.282;2023-01-31T18:48:31;14.95;;;5.18;;